sensor_id;sensor_type;location;lat;lon;timestamp;P1;durP1;ratioP1;P2;durP2;ratioP2
52180;SDS011;38158;53.338;6.514;2022-11-21T00:00:21;21.77;;;14.10;;
52180;SDS011;38158;53.338;6.514;2022-11-21T00:02:47;24.35;;;15.05;;
52180;SDS011;38158;53.338;6.514;2022-11-21T00:05:13;22.65;;;14.38;;
52180;SDS011;38158;53.338;6.514;2022-11-21T00:07:38;24.52;;;15.13;;
52180;SDS011;38158;53.338;6.514;2022-11-21T00:10:04;23.33;;;14.75;;
52180;SDS011;38158;53.338;6.514;2022-11-21T00:12:30;22.73;;;14.18;;
52180;SDS011;38158;53.338;6.514;2022-11-21T00:14:56;21.20;;;13.93;;
52180;SDS011;38158;53.338;6.514;2022-11-21T00:17:21;24.05;;;15.20;;
52180;SDS011;38158;53.338;6.514;2022-11-21T00:19:47;23.77;;;14.75;;
52180;SDS011;38158;53.338;6.514;2022-11-21T00:22:13;22.50;;;13.95;;
52180;SDS011;38158;53.338;6.514;2022-11-21T00:24:38;21.23;;;13.65;;
52180;SDS011;38158;53.338;6.514;2022-11-21T00:27:04;25.50;;;14.85;;
52180;SDS011;38158;53.338;6.514;2022-11-21T00:29:30;24.45;;;14.50;;
52180;SDS011;38158;53.338;6.514;2022-11-21T00:31:55;25.45;;;15.88;;
52180;SDS011;38158;53.338;6.514;2022-11-21T00:34:21;23.48;;;15.68;;
52180;SDS011;38158;53.338;6.514;2022-11-21T00:36:47;24.02;;;15.13;;
52180;SDS011;38158;53.338;6.514;2022-11-21T00:39:12;23.55;;;14.98;;
52180;SDS011;38158;53.338;6.514;2022-11-21T00:41:38;22.55;;;14.32;;
52180;SDS011;38158;53.338;6.514;2022-11-21T00:44:04;23.02;;;14.20;;
52180;SDS011;38158;53.338;6.514;2022-11-21T00:46:30;23.65;;;15.02;;
52180;SDS011;38158;53.338;6.514;2022-11-21T00:48:55;22.55;;;14.27;;
52180;SDS011;38158;53.338;6.514;2022-11-21T00:51:21;23.98;;;15.35;;
52180;SDS011;38158;53.338;6.514;2022-11-21T00:53:47;22.45;;;14.77;;
52180;SDS011;38158;53.338;6.514;2022-11-21T00:56:12;22.90;;;15.15;;
52180;SDS011;38158;53.338;6.514;2022-11-21T00:58:38;22.50;;;14.85;;
52180;SDS011;38158;53.338;6.514;2022-11-21T01:01:11;22.85;;;14.77;;
52180;SDS011;38158;53.338;6.514;2022-11-21T01:03:38;21.33;;;15.02;;
52180;SDS011;38158;53.338;6.514;2022-11-21T01:06:08;25.23;;;15.05;;
52180;SDS011;38158;53.338;6.514;2022-11-21T01:08:37;23.30;;;15.70;;
52180;SDS011;38158;53.338;6.514;2022-11-21T01:11:05;25.05;;;15.75;;
52180;SDS011;38158;53.338;6.514;2022-11-21T01:13:35;23.85;;;15.50;;
52180;SDS011;38158;53.338;6.514;2022-11-21T01:16:05;26.23;;;15.87;;
52180;SDS011;38158;53.338;6.514;2022-11-21T01:18:32;23.95;;;15.73;;
52180;SDS011;38158;53.338;6.514;2022-11-21T01:21:02;23.10;;;15.73;;
52180;SDS011;38158;53.338;6.514;2022-11-21T01:23:29;25.00;;;16.45;;
52180;SDS011;38158;53.338;6.514;2022-11-21T01:26:05;23.75;;;16.60;;
52180;SDS011;38158;53.338;6.514;2022-11-21T01:28:32;24.80;;;16.17;;
52180;SDS011;38158;53.338;6.514;2022-11-21T01:31:02;23.80;;;16.15;;
52180;SDS011;38158;53.338;6.514;2022-11-21T01:33:38;25.30;;;17.05;;
52180;SDS011;38158;53.338;6.514;2022-11-21T01:36:05;24.27;;;17.10;;
52180;SDS011;38158;53.338;6.514;2022-11-21T01:38:32;23.58;;;15.77;;
52180;SDS011;38158;53.338;6.514;2022-11-21T01:40:57;23.02;;;15.70;;
52180;SDS011;38158;53.338;6.514;2022-11-21T01:43:23;25.42;;;16.38;;
52180;SDS011;38158;53.338;6.514;2022-11-21T01:48:21;24.13;;;15.45;;
52180;SDS011;38158;53.338;6.514;2022-11-21T01:50:58;24.58;;;17.10;;
52180;SDS011;38158;53.338;6.514;2022-11-21T01:53:29;24.90;;;17.48;;
52180;SDS011;38158;53.338;6.514;2022-11-21T01:55:55;23.38;;;16.27;;
52180;SDS011;38158;53.338;6.514;2022-11-21T01:58:20;22.73;;;16.33;;
52180;SDS011;38158;53.338;6.514;2022-11-21T02:00:47;24.05;;;16.25;;
52180;SDS011;38158;53.338;6.514;2022-11-21T02:03:14;24.33;;;16.25;;
52180;SDS011;38158;53.338;6.514;2022-11-21T02:05:43;23.83;;;17.35;;
52180;SDS011;38158;53.338;6.514;2022-11-21T02:08:19;25.38;;;17.20;;
52180;SDS011;38158;53.338;6.514;2022-11-21T02:13:45;26.45;;;17.15;;
52180;SDS011;38158;53.338;6.514;2022-11-21T02:16:10;24.42;;;16.70;;
52180;SDS011;38158;53.338;6.514;2022-11-21T02:18:36;23.67;;;16.60;;
52180;SDS011;38158;53.338;6.514;2022-11-21T02:21:08;24.85;;;16.63;;
52180;SDS011;38158;53.338;6.514;2022-11-21T02:26:40;25.55;;;16.52;;
52180;SDS011;38158;53.338;6.514;2022-11-21T02:29:06;23.67;;;16.17;;
52180;SDS011;38158;53.338;6.514;2022-11-21T02:31:32;26.13;;;16.30;;
52180;SDS011;38158;53.338;6.514;2022-11-21T02:33:57;23.45;;;16.88;;
52180;SDS011;38158;53.338;6.514;2022-11-21T02:36:32;25.23;;;17.45;;
52180;SDS011;38158;53.338;6.514;2022-11-21T02:39:13;25.13;;;16.63;;
52180;SDS011;38158;53.338;6.514;2022-11-21T02:41:47;24.13;;;17.73;;
52180;SDS011;38158;53.338;6.514;2022-11-21T02:44:39;22.00;;;15.80;;
52180;SDS011;38158;53.338;6.514;2022-11-21T02:47:15;28.33;;;17.35;;
52180;SDS011;38158;53.338;6.514;2022-11-21T02:49:45;24.38;;;17.35;;
52180;SDS011;38158;53.338;6.514;2022-11-21T02:52:17;28.65;;;18.30;;
52180;SDS011;38158;53.338;6.514;2022-11-21T02:54:43;27.83;;;18.33;;
52180;SDS011;38158;53.338;6.514;2022-11-21T02:57:09;24.88;;;18.20;;
52180;SDS011;38158;53.338;6.514;2022-11-21T02:59:34;26.77;;;17.73;;
52180;SDS011;38158;53.338;6.514;2022-11-21T03:02:00;25.67;;;17.85;;
52180;SDS011;38158;53.338;6.514;2022-11-21T03:04:26;27.40;;;19.17;;
52180;SDS011;38158;53.338;6.514;2022-11-21T03:06:52;27.57;;;18.10;;
52180;SDS011;38158;53.338;6.514;2022-11-21T03:09:18;28.38;;;19.20;;
52180;SDS011;38158;53.338;6.514;2022-11-21T03:11:44;28.17;;;19.55;;
52180;SDS011;38158;53.338;6.514;2022-11-21T03:14:09;24.98;;;18.17;;
52180;SDS011;38158;53.338;6.514;2022-11-21T03:16:35;25.52;;;18.15;;
52180;SDS011;38158;53.338;6.514;2022-11-21T03:19:01;26.50;;;17.60;;
52180;SDS011;38158;53.338;6.514;2022-11-21T03:21:26;28.05;;;18.83;;
52180;SDS011;38158;53.338;6.514;2022-11-21T03:23:52;27.45;;;18.73;;
52180;SDS011;38158;53.338;6.514;2022-11-21T03:26:18;25.88;;;18.23;;
52180;SDS011;38158;53.338;6.514;2022-11-21T03:28:43;26.08;;;17.98;;
52180;SDS011;38158;53.338;6.514;2022-11-21T03:31:09;25.08;;;18.17;;
52180;SDS011;38158;53.338;6.514;2022-11-21T03:33:35;26.90;;;18.23;;
52180;SDS011;38158;53.338;6.514;2022-11-21T03:36:00;27.58;;;18.70;;
52180;SDS011;38158;53.338;6.514;2022-11-21T03:38:26;28.35;;;19.45;;
52180;SDS011;38158;53.338;6.514;2022-11-21T03:40:52;28.00;;;17.77;;
52180;SDS011;38158;53.338;6.514;2022-11-21T03:43:17;30.67;;;20.42;;
52180;SDS011;38158;53.338;6.514;2022-11-21T03:45:46;28.75;;;20.15;;
52180;SDS011;38158;53.338;6.514;2022-11-21T03:48:12;29.33;;;21.08;;
52180;SDS011;38158;53.338;6.514;2022-11-21T03:50:41;28.88;;;20.15;;
52180;SDS011;38158;53.338;6.514;2022-11-21T03:53:07;30.25;;;21.15;;
52180;SDS011;38158;53.338;6.514;2022-11-21T03:55:33;28.45;;;19.95;;
52180;SDS011;38158;53.338;6.514;2022-11-21T03:57:58;31.02;;;22.48;;
52180;SDS011;38158;53.338;6.514;2022-11-21T04:00:24;33.70;;;21.70;;
52180;SDS011;38158;53.338;6.514;2022-11-21T04:02:50;32.83;;;22.17;;
52180;SDS011;38158;53.338;6.514;2022-11-21T04:05:16;29.73;;;21.48;;
52180;SDS011;38158;53.338;6.514;2022-11-21T04:07:41;29.48;;;20.13;;
52180;SDS011;38158;53.338;6.514;2022-11-21T04:10:07;34.05;;;22.08;;
52180;SDS011;38158;53.338;6.514;2022-11-21T04:12:33;33.25;;;21.20;;
52180;SDS011;38158;53.338;6.514;2022-11-21T04:14:59;31.15;;;20.63;;
52180;SDS011;38158;53.338;6.514;2022-11-21T04:17:24;29.75;;;20.80;;
52180;SDS011;38158;53.338;6.514;2022-11-21T04:19:50;32.08;;;20.98;;
52180;SDS011;38158;53.338;6.514;2022-11-21T04:22:16;32.55;;;21.38;;
52180;SDS011;38158;53.338;6.514;2022-11-21T04:24:41;32.95;;;21.45;;
52180;SDS011;38158;53.338;6.514;2022-11-21T04:27:07;35.65;;;23.15;;
52180;SDS011;38158;53.338;6.514;2022-11-21T04:29:32;34.28;;;22.17;;
52180;SDS011;38158;53.338;6.514;2022-11-21T04:31:58;37.05;;;25.95;;
52180;SDS011;38158;53.338;6.514;2022-11-21T04:34:24;33.20;;;21.98;;
52180;SDS011;38158;53.338;6.514;2022-11-21T04:36:49;33.47;;;22.45;;
52180;SDS011;38158;53.338;6.514;2022-11-21T04:39:15;30.02;;;20.98;;
52180;SDS011;38158;53.338;6.514;2022-11-21T04:41:41;33.53;;;21.23;;
52180;SDS011;38158;53.338;6.514;2022-11-21T04:44:06;33.45;;;22.33;;
52180;SDS011;38158;53.338;6.514;2022-11-21T04:46:32;33.80;;;22.20;;
52180;SDS011;38158;53.338;6.514;2022-11-21T04:48:58;31.15;;;22.42;;
52180;SDS011;38158;53.338;6.514;2022-11-21T04:51:23;32.75;;;22.75;;
52180;SDS011;38158;53.338;6.514;2022-11-21T04:53:49;35.65;;;23.02;;
52180;SDS011;38158;53.338;6.514;2022-11-21T04:56:14;37.08;;;22.45;;
52180;SDS011;38158;53.338;6.514;2022-11-21T04:58:41;36.78;;;23.25;;
52180;SDS011;38158;53.338;6.514;2022-11-21T05:01:08;34.80;;;24.00;;
52180;SDS011;38158;53.338;6.514;2022-11-21T05:03:34;32.95;;;23.00;;
52180;SDS011;38158;53.338;6.514;2022-11-21T05:06:00;38.22;;;25.52;;
52180;SDS011;38158;53.338;6.514;2022-11-21T05:08:26;37.53;;;24.42;;
52180;SDS011;38158;53.338;6.514;2022-11-21T05:10:52;34.35;;;23.15;;
52180;SDS011;38158;53.338;6.514;2022-11-21T05:13:37;44.22;;;27.60;;
52180;SDS011;38158;53.338;6.514;2022-11-21T05:16:02;35.75;;;24.15;;
52180;SDS011;38158;53.338;6.514;2022-11-21T05:18:29;35.63;;;23.83;;
52180;SDS011;38158;53.338;6.514;2022-11-21T05:20:55;33.58;;;23.05;;
52180;SDS011;38158;53.338;6.514;2022-11-21T05:23:20;34.38;;;23.58;;
52180;SDS011;38158;53.338;6.514;2022-11-21T05:25:46;33.03;;;22.40;;
52180;SDS011;38158;53.338;6.514;2022-11-21T05:28:12;35.55;;;23.60;;
52180;SDS011;38158;53.338;6.514;2022-11-21T05:30:37;37.70;;;24.50;;
52180;SDS011;38158;53.338;6.514;2022-11-21T05:33:03;35.70;;;23.38;;
52180;SDS011;38158;53.338;6.514;2022-11-21T05:35:29;36.05;;;23.45;;
52180;SDS011;38158;53.338;6.514;2022-11-21T05:37:56;37.08;;;25.15;;
52180;SDS011;38158;53.338;6.514;2022-11-21T05:40:22;35.38;;;24.85;;
52180;SDS011;38158;53.338;6.514;2022-11-21T05:42:50;38.97;;;25.35;;
52180;SDS011;38158;53.338;6.514;2022-11-21T05:45:34;36.83;;;24.25;;
52180;SDS011;38158;53.338;6.514;2022-11-21T05:48:00;36.58;;;24.83;;
52180;SDS011;38158;53.338;6.514;2022-11-21T05:50:26;39.58;;;25.95;;
52180;SDS011;38158;53.338;6.514;2022-11-21T05:52:51;37.35;;;24.40;;
52180;SDS011;38158;53.338;6.514;2022-11-21T05:55:17;39.88;;;24.60;;
52180;SDS011;38158;53.338;6.514;2022-11-21T05:57:43;39.08;;;25.65;;
52180;SDS011;38158;53.338;6.514;2022-11-21T06:00:09;40.60;;;25.60;;
52180;SDS011;38158;53.338;6.514;2022-11-21T06:02:35;38.35;;;24.67;;
52180;SDS011;38158;53.338;6.514;2022-11-21T06:05:19;39.92;;;26.70;;
52180;SDS011;38158;53.338;6.514;2022-11-21T06:07:45;43.75;;;26.15;;
52180;SDS011;38158;53.338;6.514;2022-11-21T06:10:10;40.58;;;25.35;;
52180;SDS011;38158;53.338;6.514;2022-11-21T06:12:36;42.42;;;25.52;;
52180;SDS011;38158;53.338;6.514;2022-11-21T06:15:02;42.55;;;26.33;;
52180;SDS011;38158;53.338;6.514;2022-11-21T06:17:28;37.55;;;24.60;;
52180;SDS011;38158;53.338;6.514;2022-11-21T06:19:53;37.75;;;23.95;;
52180;SDS011;38158;53.338;6.514;2022-11-21T06:22:19;42.40;;;24.83;;
52180;SDS011;38158;53.338;6.514;2022-11-21T06:24:45;38.15;;;25.60;;
52180;SDS011;38158;53.338;6.514;2022-11-21T06:27:10;38.28;;;24.63;;
52180;SDS011;38158;53.338;6.514;2022-11-21T06:29:36;41.83;;;26.33;;
52180;SDS011;38158;53.338;6.514;2022-11-21T06:32:02;39.70;;;25.48;;
52180;SDS011;38158;53.338;6.514;2022-11-21T06:34:28;41.10;;;25.75;;
52180;SDS011;38158;53.338;6.514;2022-11-21T06:36:53;36.90;;;23.60;;
52180;SDS011;38158;53.338;6.514;2022-11-21T06:39:19;37.55;;;24.27;;
52180;SDS011;38158;53.338;6.514;2022-11-21T06:41:45;38.55;;;24.30;;
52180;SDS011;38158;53.338;6.514;2022-11-21T06:44:15;39.78;;;23.80;;
52180;SDS011;38158;53.338;6.514;2022-11-21T06:49:07;36.78;;;22.20;;
52180;SDS011;38158;53.338;6.514;2022-11-21T06:51:33;36.42;;;21.98;;
52180;SDS011;38158;53.338;6.514;2022-11-21T06:53:59;33.92;;;22.58;;
52180;SDS011;38158;53.338;6.514;2022-11-21T06:56:25;37.33;;;23.60;;
52180;SDS011;38158;53.338;6.514;2022-11-21T06:58:52;35.42;;;23.20;;
52180;SDS011;38158;53.338;6.514;2022-11-21T07:01:18;38.55;;;23.25;;
52180;SDS011;38158;53.338;6.514;2022-11-21T07:03:44;36.28;;;23.23;;
52180;SDS011;38158;53.338;6.514;2022-11-21T07:06:10;38.75;;;24.38;;
52180;SDS011;38158;53.338;6.514;2022-11-21T07:08:35;37.28;;;21.95;;
52180;SDS011;38158;53.338;6.514;2022-11-21T07:11:02;35.65;;;23.23;;
52180;SDS011;38158;53.338;6.514;2022-11-21T07:13:30;34.78;;;21.77;;
52180;SDS011;38158;53.338;6.514;2022-11-21T07:16:06;34.83;;;22.33;;
52180;SDS011;38158;53.338;6.514;2022-11-21T07:18:33;38.42;;;23.48;;
52180;SDS011;38158;53.338;6.514;2022-11-21T07:21:03;35.15;;;22.88;;
52180;SDS011;38158;53.338;6.514;2022-11-21T07:23:30;36.70;;;23.70;;
52180;SDS011;38158;53.338;6.514;2022-11-21T07:26:04;38.55;;;24.40;;
52180;SDS011;38158;53.338;6.514;2022-11-21T07:28:31;38.10;;;24.13;;
52180;SDS011;38158;53.338;6.514;2022-11-21T07:30:58;35.97;;;24.52;;
52180;SDS011;38158;53.338;6.514;2022-11-21T07:33:25;37.83;;;23.02;;
52180;SDS011;38158;53.338;6.514;2022-11-21T07:35:51;39.05;;;24.10;;
52180;SDS011;38158;53.338;6.514;2022-11-21T07:38:17;43.60;;;24.08;;
52180;SDS011;38158;53.338;6.514;2022-11-21T07:40:42;41.15;;;24.17;;
52180;SDS011;38158;53.338;6.514;2022-11-21T07:43:09;35.92;;;23.55;;
52180;SDS011;38158;53.338;6.514;2022-11-21T07:45:35;38.28;;;24.27;;
52180;SDS011;38158;53.338;6.514;2022-11-21T07:48:01;40.53;;;25.30;;
52180;SDS011;38158;53.338;6.514;2022-11-21T07:50:29;39.88;;;23.83;;
52180;SDS011;38158;53.338;6.514;2022-11-21T07:52:58;33.33;;;22.75;;
52180;SDS011;38158;53.338;6.514;2022-11-21T07:55:29;38.90;;;23.20;;
52180;SDS011;38158;53.338;6.514;2022-11-21T07:57:58;39.55;;;23.30;;
52180;SDS011;38158;53.338;6.514;2022-11-21T08:00:29;38.85;;;23.10;;
52180;SDS011;38158;53.338;6.514;2022-11-21T08:02:55;34.90;;;22.33;;
52180;SDS011;38158;53.338;6.514;2022-11-21T08:05:21;34.15;;;23.05;;
52180;SDS011;38158;53.338;6.514;2022-11-21T08:07:47;37.45;;;23.92;;
52180;SDS011;38158;53.338;6.514;2022-11-21T08:10:14;38.05;;;24.92;;
52180;SDS011;38158;53.338;6.514;2022-11-21T08:12:40;37.30;;;24.65;;
52180;SDS011;38158;53.338;6.514;2022-11-21T08:15:05;38.17;;;24.13;;
52180;SDS011;38158;53.338;6.514;2022-11-21T08:17:32;41.70;;;25.83;;
52180;SDS011;38158;53.338;6.514;2022-11-21T08:19:58;42.65;;;26.92;;
52180;SDS011;38158;53.338;6.514;2022-11-21T08:22:25;42.28;;;25.08;;
52180;SDS011;38158;53.338;6.514;2022-11-21T08:24:51;40.90;;;26.27;;
52180;SDS011;38158;53.338;6.514;2022-11-21T08:27:20;41.60;;;25.88;;
52180;SDS011;38158;53.338;6.514;2022-11-21T08:29:47;49.03;;;27.30;;
52180;SDS011;38158;53.338;6.514;2022-11-21T08:32:13;42.75;;;27.33;;
52180;SDS011;38158;53.338;6.514;2022-11-21T08:34:39;47.17;;;28.80;;
52180;SDS011;38158;53.338;6.514;2022-11-21T08:37:04;43.65;;;27.85;;
52180;SDS011;38158;53.338;6.514;2022-11-21T08:39:30;46.03;;;29.55;;
52180;SDS011;38158;53.338;6.514;2022-11-21T08:41:56;42.88;;;27.60;;
52180;SDS011;38158;53.338;6.514;2022-11-21T08:44:28;46.20;;;28.63;;
52180;SDS011;38158;53.338;6.514;2022-11-21T08:46:54;41.83;;;26.55;;
52180;SDS011;38158;53.338;6.514;2022-11-21T08:49:21;44.63;;;28.33;;
52180;SDS011;38158;53.338;6.514;2022-11-21T08:51:47;41.55;;;27.08;;
52180;SDS011;38158;53.338;6.514;2022-11-21T08:54:14;38.87;;;26.40;;
52180;SDS011;38158;53.338;6.514;2022-11-21T08:56:40;40.60;;;25.98;;
52180;SDS011;38158;53.338;6.514;2022-11-21T08:59:06;41.50;;;25.73;;
52180;SDS011;38158;53.338;6.514;2022-11-21T09:01:32;42.42;;;25.92;;
52180;SDS011;38158;53.338;6.514;2022-11-21T09:03:57;37.88;;;23.30;;
52180;SDS011;38158;53.338;6.514;2022-11-21T09:06:23;37.78;;;24.20;;
52180;SDS011;38158;53.338;6.514;2022-11-21T09:08:49;40.88;;;25.27;;
52180;SDS011;38158;53.338;6.514;2022-11-21T09:11:14;36.00;;;22.95;;
52180;SDS011;38158;53.338;6.514;2022-11-21T09:13:40;38.70;;;25.10;;
52180;SDS011;38158;53.338;6.514;2022-11-21T09:16:06;40.60;;;24.83;;
52180;SDS011;38158;53.338;6.514;2022-11-21T09:18:50;37.83;;;24.13;;
52180;SDS011;38158;53.338;6.514;2022-11-21T09:21:17;36.70;;;23.40;;
52180;SDS011;38158;53.338;6.514;2022-11-21T09:23:44;38.42;;;24.33;;
52180;SDS011;38158;53.338;6.514;2022-11-21T09:26:10;32.80;;;21.77;;
52180;SDS011;38158;53.338;6.514;2022-11-21T09:28:36;34.97;;;23.13;;
52180;SDS011;38158;53.338;6.514;2022-11-21T09:31:02;36.60;;;22.45;;
52180;SDS011;38158;53.338;6.514;2022-11-21T09:33:29;34.90;;;21.42;;
52180;SDS011;38158;53.338;6.514;2022-11-21T09:35:59;32.25;;;21.02;;
52180;SDS011;38158;53.338;6.514;2022-11-21T09:38:25;36.25;;;22.35;;
52180;SDS011;38158;53.338;6.514;2022-11-21T09:40:53;33.03;;;22.55;;
52180;SDS011;38158;53.338;6.514;2022-11-21T09:46:26;32.20;;;20.20;;
52180;SDS011;38158;53.338;6.514;2022-11-21T09:49:01;32.08;;;20.27;;
52180;SDS011;38158;53.338;6.514;2022-11-21T09:51:31;30.88;;;19.13;;
52180;SDS011;38158;53.338;6.514;2022-11-21T09:56:51;29.33;;;19.17;;
52180;SDS011;38158;53.338;6.514;2022-11-21T09:59:22;27.77;;;17.98;;
52180;SDS011;38158;53.338;6.514;2022-11-21T10:01:51;27.05;;;17.67;;
52180;SDS011;38158;53.338;6.514;2022-11-21T10:04:17;25.92;;;17.65;;
52180;SDS011;38158;53.338;6.514;2022-11-21T10:12:32;25.25;;;15.93;;
52180;SDS011;38158;53.338;6.514;2022-11-21T10:18:18;28.60;;;17.38;;
52180;SDS011;38158;53.338;6.514;2022-11-21T10:29:10;26.50;;;16.23;;
52180;SDS011;38158;53.338;6.514;2022-11-21T10:31:41;28.45;;;16.38;;
52180;SDS011;38158;53.338;6.514;2022-11-21T10:34:11;29.35;;;16.42;;
52180;SDS011;38158;53.338;6.514;2022-11-21T10:36:54;25.70;;;16.05;;
52180;SDS011;38158;53.338;6.514;2022-11-21T10:39:28;27.23;;;17.08;;
52180;SDS011;38158;53.338;6.514;2022-11-21T10:44:57;28.02;;;17.63;;
52180;SDS011;38158;53.338;6.514;2022-11-21T10:47:47;28.10;;;17.27;;
52180;SDS011;38158;53.338;6.514;2022-11-21T10:52:48;24.48;;;16.73;;
52180;SDS011;38158;53.338;6.514;2022-11-21T10:55:18;26.70;;;16.17;;
52180;SDS011;38158;53.338;6.514;2022-11-21T10:57:44;23.52;;;15.43;;
52180;SDS011;38158;53.338;6.514;2022-11-21T11:02:38;19.67;;;11.68;;
52180;SDS011;38158;53.338;6.514;2022-11-21T11:05:21;16.00;;;10.25;;
52180;SDS011;38158;53.338;6.514;2022-11-21T11:08:01;17.35;;;10.70;;
52180;SDS011;38158;53.338;6.514;2022-11-21T11:10:27;18.10;;;11.30;;
52180;SDS011;38158;53.338;6.514;2022-11-21T11:12:53;18.83;;;11.85;;
52180;SDS011;38158;53.338;6.514;2022-11-21T11:15:50;18.83;;;11.88;;
52180;SDS011;38158;53.338;6.514;2022-11-21T11:18:23;20.40;;;12.30;;
52180;SDS011;38158;53.338;6.514;2022-11-21T11:20:49;18.42;;;12.07;;
52180;SDS011;38158;53.338;6.514;2022-11-21T11:25:57;19.60;;;11.35;;
52180;SDS011;38158;53.338;6.514;2022-11-21T11:28:24;19.05;;;11.73;;
52180;SDS011;38158;53.338;6.514;2022-11-21T11:30:57;18.95;;;11.30;;
52180;SDS011;38158;53.338;6.514;2022-11-21T11:33:29;21.55;;;11.77;;
52180;SDS011;38158;53.338;6.514;2022-11-21T11:35:55;18.70;;;11.48;;
52180;SDS011;38158;53.338;6.514;2022-11-21T11:38:29;17.55;;;11.13;;
52180;SDS011;38158;53.338;6.514;2022-11-21T11:40:56;17.70;;;10.48;;
52180;SDS011;38158;53.338;6.514;2022-11-21T11:49:39;16.67;;;10.07;;
52180;SDS011;38158;53.338;6.514;2022-11-21T11:52:30;17.92;;;10.13;;
52180;SDS011;38158;53.338;6.514;2022-11-21T11:55:04;17.90;;;11.23;;
52180;SDS011;38158;53.338;6.514;2022-11-21T11:57:32;16.27;;;10.30;;
52180;SDS011;38158;53.338;6.514;2022-11-21T12:00:37;17.65;;;10.57;;
52180;SDS011;38158;53.338;6.514;2022-11-21T12:02:57;17.38;;;10.73;;
52180;SDS011;38158;53.338;6.514;2022-11-21T12:05:28;15.27;;;9.73;;
52180;SDS011;38158;53.338;6.514;2022-11-21T12:08:09;16.23;;;9.93;;
52180;SDS011;38158;53.338;6.514;2022-11-21T12:10:48;13.93;;;8.50;;
52180;SDS011;38158;53.338;6.514;2022-11-21T12:13:42;15.40;;;8.65;;
52180;SDS011;38158;53.338;6.514;2022-11-21T12:16:11;13.57;;;8.52;;
52180;SDS011;38158;53.338;6.514;2022-11-21T12:18:53;15.40;;;9.30;;
52180;SDS011;38158;53.338;6.514;2022-11-21T12:21:24;14.80;;;9.10;;
52180;SDS011;38158;53.338;6.514;2022-11-21T12:23:51;14.50;;;8.07;;
52180;SDS011;38158;53.338;6.514;2022-11-21T12:42:05;11.35;;;7.20;;
52180;SDS011;38158;53.338;6.514;2022-11-21T12:47:36;13.05;;;7.10;;
52180;SDS011;38158;53.338;6.514;2022-11-21T12:50:39;12.17;;;7.20;;
52180;SDS011;38158;53.338;6.514;2022-11-21T12:53:34;32.33;;;9.55;;
52180;SDS011;38158;53.338;6.514;2022-11-21T12:56:50;13.13;;;7.35;;
52180;SDS011;38158;53.338;6.514;2022-11-21T13:05:04;14.02;;;8.50;;
52180;SDS011;38158;53.338;6.514;2022-11-21T13:07:35;12.85;;;8.05;;
52180;SDS011;38158;53.338;6.514;2022-11-21T13:10:02;16.70;;;8.73;;
52180;SDS011;38158;53.338;6.514;2022-11-21T13:15:23;26.83;;;15.07;;
52180;SDS011;38158;53.338;6.514;2022-11-21T13:18:04;17.98;;;12.18;;
52180;SDS011;38158;53.338;6.514;2022-11-21T13:20:47;17.20;;;11.02;;
52180;SDS011;38158;53.338;6.514;2022-11-21T13:23:34;16.15;;;10.30;;
52180;SDS011;38158;53.338;6.514;2022-11-21T13:26:50;16.17;;;9.77;;
52180;SDS011;38158;53.338;6.514;2022-11-21T13:29:11;18.98;;;13.55;;
52180;SDS011;38158;53.338;6.514;2022-11-21T13:31:38;17.90;;;11.55;;
52180;SDS011;38158;53.338;6.514;2022-11-21T13:36:55;19.63;;;11.93;;
52180;SDS011;38158;53.338;6.514;2022-11-21T13:39:26;21.90;;;12.60;;
52180;SDS011;38158;53.338;6.514;2022-11-21T13:44:48;18.80;;;12.90;;
52180;SDS011;38158;53.338;6.514;2022-11-21T13:50:29;21.20;;;13.48;;
52180;SDS011;38158;53.338;6.514;2022-11-21T14:09:46;22.67;;;14.52;;
52180;SDS011;38158;53.338;6.514;2022-11-21T14:17:47;20.83;;;13.32;;
52180;SDS011;38158;53.338;6.514;2022-11-21T14:20:28;20.77;;;13.13;;
52180;SDS011;38158;53.338;6.514;2022-11-21T14:23:14;22.30;;;14.57;;
52180;SDS011;38158;53.338;6.514;2022-11-21T14:30:48;21.45;;;13.50;;
52180;SDS011;38158;53.338;6.514;2022-11-21T14:35:54;21.65;;;13.73;;
52180;SDS011;38158;53.338;6.514;2022-11-21T14:38:29;20.67;;;13.70;;
52180;SDS011;38158;53.338;6.514;2022-11-21T14:46:26;21.00;;;13.55;;
52180;SDS011;38158;53.338;6.514;2022-11-21T14:48:56;23.05;;;13.93;;
52180;SDS011;38158;53.338;6.514;2022-11-21T14:51:33;19.40;;;12.77;;
52180;SDS011;38158;53.338;6.514;2022-11-21T14:54:01;24.80;;;14.13;;
52180;SDS011;38158;53.338;6.514;2022-11-21T14:56:31;22.92;;;13.63;;
52180;SDS011;38158;53.338;6.514;2022-11-21T14:59:00;22.60;;;14.95;;
52180;SDS011;38158;53.338;6.514;2022-11-21T15:01:31;23.08;;;13.93;;
52180;SDS011;38158;53.338;6.514;2022-11-21T15:04:02;24.30;;;14.32;;
52180;SDS011;38158;53.338;6.514;2022-11-21T15:06:41;27.30;;;14.85;;
52180;SDS011;38158;53.338;6.514;2022-11-21T15:09:11;25.88;;;15.55;;
52180;SDS011;38158;53.338;6.514;2022-11-21T15:14:11;24.77;;;14.88;;
52180;SDS011;38158;53.338;6.514;2022-11-21T15:16:46;26.05;;;15.98;;
52180;SDS011;38158;53.338;6.514;2022-11-21T15:19:19;26.20;;;16.10;;
52180;SDS011;38158;53.338;6.514;2022-11-21T15:21:46;24.65;;;15.80;;
52180;SDS011;38158;53.338;6.514;2022-11-21T15:24:34;30.70;;;17.92;;
52180;SDS011;38158;53.338;6.514;2022-11-21T15:27:22;27.63;;;17.42;;
52180;SDS011;38158;53.338;6.514;2022-11-21T15:30:04;31.73;;;18.52;;
52180;SDS011;38158;53.338;6.514;2022-11-21T15:32:36;32.42;;;19.73;;
52180;SDS011;38158;53.338;6.514;2022-11-21T15:35:25;30.40;;;18.70;;
52180;SDS011;38158;53.338;6.514;2022-11-21T15:40:18;34.92;;;19.88;;
52180;SDS011;38158;53.338;6.514;2022-11-21T15:42:44;35.85;;;19.90;;
52180;SDS011;38158;53.338;6.514;2022-11-21T15:47:39;43.08;;;24.35;;
52180;SDS011;38158;53.338;6.514;2022-11-21T15:50:06;39.88;;;23.67;;
52180;SDS011;38158;53.338;6.514;2022-11-21T15:52:42;37.65;;;21.50;;
52180;SDS011;38158;53.338;6.514;2022-11-21T15:55:16;39.28;;;20.08;;
52180;SDS011;38158;53.338;6.514;2022-11-21T15:57:44;38.35;;;21.30;;
52180;SDS011;38158;53.338;6.514;2022-11-21T16:00:10;36.58;;;21.38;;
52180;SDS011;38158;53.338;6.514;2022-11-21T16:02:36;35.42;;;20.63;;
52180;SDS011;38158;53.338;6.514;2022-11-21T16:05:01;35.60;;;19.00;;
52180;SDS011;38158;53.338;6.514;2022-11-21T16:07:27;42.15;;;22.83;;
52180;SDS011;38158;53.338;6.514;2022-11-21T16:09:53;40.53;;;24.23;;
52180;SDS011;38158;53.338;6.514;2022-11-21T16:12:20;41.38;;;23.85;;
52180;SDS011;38158;53.338;6.514;2022-11-21T16:14:46;41.70;;;21.98;;
52180;SDS011;38158;53.338;6.514;2022-11-21T16:17:11;45.88;;;25.13;;
52180;SDS011;38158;53.338;6.514;2022-11-21T16:19:38;47.67;;;24.87;;
52180;SDS011;38158;53.338;6.514;2022-11-21T16:22:03;44.53;;;25.02;;
52180;SDS011;38158;53.338;6.514;2022-11-21T16:24:29;43.88;;;22.10;;
52180;SDS011;38158;53.338;6.514;2022-11-21T16:26:55;46.88;;;24.77;;
52180;SDS011;38158;53.338;6.514;2022-11-21T16:29:21;45.55;;;24.55;;
52180;SDS011;38158;53.338;6.514;2022-11-21T16:31:48;50.13;;;26.50;;
52180;SDS011;38158;53.338;6.514;2022-11-21T16:34:17;47.83;;;25.17;;
52180;SDS011;38158;53.338;6.514;2022-11-21T16:36:43;46.53;;;25.48;;
52180;SDS011;38158;53.338;6.514;2022-11-21T16:39:08;54.42;;;26.33;;
52180;SDS011;38158;53.338;6.514;2022-11-21T16:41:34;50.65;;;26.40;;